createdAt,value
2023-04-07T00:00:40.439Z,24.44
2023-04-07T00:01:40.565Z,24.44
2023-04-07T00:02:41.905Z,24.46
2023-04-07T00:03:40.590Z,24.44
2023-04-07T00:04:40.508Z,24.43
2023-04-07T00:05:40.463Z,24.42
2023-04-07T00:06:40.469Z,24.44
2023-04-07T00:07:52.463Z,24.42
2023-04-07T00:08:41.448Z,24.44
2023-04-07T00:09:40.408Z,24.42
2023-04-07T00:10:40.435Z,24.42
2023-04-07T00:11:40.402Z,24.42
2023-04-07T00:12:40.422Z,24.43
2023-04-07T00:13:40.395Z,24.42
2023-04-07T00:14:40.415Z,24.43
2023-04-07T00:15:40.442Z,24.43
2023-04-07T00:16:40.338Z,24.40
2023-04-07T00:17:40.435Z,24.42
2023-04-07T00:18:40.362Z,24.42
2023-04-07T00:19:40.330Z,24.42
2023-04-07T00:20:40.363Z,24.42
2023-04-07T00:21:40.361Z,24.43
2023-04-07T00:22:40.332Z,24.43
2023-04-07T00:23:40.292Z,24.43
2023-04-07T00:24:40.318Z,24.42
2023-04-07T00:25:40.300Z,24.42
2023-04-07T00:26:40.316Z,24.40
2023-04-07T00:27:40.295Z,24.42
2023-04-07T00:28:40.290Z,24.40
2023-04-07T00:29:40.253Z,24.40
2023-04-07T00:30:40.280Z,24.43
2023-04-07T00:31:40.403Z,24.40
2023-04-07T00:32:40.281Z,24.39
2023-04-07T00:33:40.297Z,24.42
2023-04-07T00:34:40.253Z,24.39
2023-04-07T00:35:40.262Z,24.39
2023-04-07T00:36:40.276Z,24.40
2023-04-07T00:37:40.273Z,24.39
2023-04-07T00:38:40.326Z,24.40
2023-04-07T00:39:40.322Z,24.40
2023-04-07T00:40:40.350Z,24.39
2023-04-07T00:41:40.391Z,24.40
2023-04-07T00:42:40.414Z,24.40
2023-04-07T00:43:40.399Z,24.39
2023-04-07T00:44:40.443Z,24.40
2023-04-07T00:45:40.507Z,24.39
2023-04-07T00:46:40.507Z,24.40
2023-04-07T00:47:40.558Z,24.37
2023-04-07T00:48:40.532Z,24.39
2023-04-07T00:49:40.525Z,24.37
2023-04-07T00:50:40.568Z,24.39
2023-04-07T00:51:40.567Z,24.37
2023-04-07T00:52:40.609Z,24.37
2023-04-07T00:53:40.637Z,24.39
2023-04-07T00:54:40.633Z,24.39
2023-04-07T00:55:40.656Z,24.37
2023-04-07T00:56:42.498Z,24.36
2023-04-07T00:57:40.646Z,24.39
2023-04-07T00:58:40.678Z,24.39
2023-04-07T00:59:40.692Z,24.37
2023-04-07T01:00:40.653Z,24.36
2023-04-07T01:01:40.768Z,24.39
2023-04-07T01:02:40.785Z,24.34
2023-04-07T01:03:40.867Z,24.39
2023-04-07T01:04:40.767Z,24.39
2023-04-07T01:05:40.611Z,24.36
2023-04-07T01:06:40.614Z,24.37
2023-04-07T01:07:40.609Z,24.39
2023-04-07T01:08:40.617Z,24.36
2023-04-07T01:09:40.602Z,24.37
2023-04-07T01:10:40.582Z,24.37
2023-04-07T01:11:40.594Z,24.37
2023-04-07T01:12:40.563Z,24.36
2023-04-07T01:13:40.539Z,24.36
2023-04-07T01:14:40.547Z,24.37
2023-04-07T01:15:40.530Z,24.36
2023-04-07T01:16:40.556Z,24.37
2023-04-07T01:17:40.570Z,24.36
2023-04-07T01:18:40.499Z,24.36
2023-04-07T01:19:40.527Z,24.34
2023-04-07T01:20:40.508Z,24.39
2023-04-07T01:21:40.498Z,24.34
2023-04-07T01:22:40.490Z,24.34
2023-04-07T01:23:40.482Z,24.37
2023-04-07T01:24:40.486Z,24.39
2023-04-07T01:25:40.472Z,24.34
2023-04-07T01:26:40.478Z,24.34
2023-04-07T01:27:40.469Z,24.34
2023-04-07T01:28:40.465Z,24.34
2023-04-07T01:29:40.505Z,24.37
2023-04-07T01:30:40.455Z,24.34
2023-04-07T01:31:40.556Z,24.34
2023-04-07T01:32:40.521Z,24.34
2023-04-07T01:33:40.408Z,24.36
2023-04-07T01:34:40.397Z,24.34
2023-04-07T01:35:40.399Z,24.36
2023-04-07T01:36:40.419Z,24.36
2023-04-07T01:37:40.363Z,24.36
2023-04-07T01:38:40.383Z,24.32
2023-04-07T01:39:40.353Z,24.37
2023-04-07T01:40:40.365Z,24.34
2023-04-07T01:41:40.376Z,24.33
2023-04-07T01:42:40.356Z,24.34
2023-04-07T01:43:41.674Z,24.32
2023-04-07T01:44:40.325Z,24.36
2023-04-07T01:45:40.329Z,24.33
2023-04-07T01:46:40.339Z,24.34
2023-04-07T01:47:40.353Z,24.33
2023-04-07T01:48:40.314Z,24.33
2023-04-07T01:49:40.316Z,24.33
2023-04-07T01:50:40.330Z,24.33
2023-04-07T01:51:40.314Z,24.34
2023-04-07T01:52:40.278Z,24.34
2023-04-07T01:53:40.345Z,24.33
2023-04-07T01:54:40.282Z,24.30
2023-04-07T01:55:40.295Z,24.32
2023-04-07T01:56:40.272Z,24.32
2023-04-07T01:57:40.265Z,24.33
2023-04-07T01:58:40.256Z,24.33
2023-04-07T01:59:40.240Z,24.32
2023-04-07T02:00:40.234Z,24.33
2023-04-07T02:01:40.529Z,24.33
2023-04-07T02:02:40.360Z,24.33
2023-04-07T02:03:40.267Z,24.33
2023-04-07T02:04:40.190Z,24.33
2023-04-07T02:05:40.347Z,24.33
2023-04-07T02:06:40.210Z,24.33
2023-04-07T02:07:40.231Z,24.32
2023-04-07T02:08:40.249Z,24.33
2023-04-07T02:09:40.293Z,24.29
2023-04-07T02:10:40.323Z,24.30
2023-04-07T02:11:40.343Z,24.33
2023-04-07T02:12:40.347Z,24.32
2023-04-07T02:13:40.387Z,24.33
2023-04-07T02:14:40.419Z,24.32
2023-04-07T02:15:40.452Z,24.30
2023-04-07T02:16:40.553Z,24.29
2023-04-07T02:17:40.526Z,24.30
2023-04-07T02:18:40.536Z,24.33
2023-04-07T02:19:40.566Z,24.29
2023-04-07T02:20:40.598Z,24.27
2023-04-07T02:21:40.582Z,24.29
2023-04-07T02:22:40.618Z,24.30
2023-04-07T02:23:40.659Z,24.30
2023-04-07T02:24:40.648Z,24.30
2023-04-07T02:25:40.714Z,24.30
2023-04-07T02:26:40.709Z,24.30
2023-04-07T02:27:40.758Z,24.27
2023-04-07T02:28:40.785Z,24.32
2023-04-07T02:29:40.805Z,24.29
2023-04-07T02:30:40.861Z,24.32
2023-04-07T02:31:40.924Z,24.32
2023-04-07T02:32:40.921Z,24.29
2023-04-07T02:33:40.981Z,24.29
2023-04-07T02:34:40.949Z,24.29
2023-04-07T02:35:40.990Z,24.27
2023-04-07T02:36:41.054Z,24.29
2023-04-07T02:37:41.070Z,24.32
2023-04-07T02:38:41.069Z,24.29
2023-04-07T02:39:41.094Z,24.29
2023-04-07T02:40:41.140Z,24.30
2023-04-07T02:41:41.162Z,24.29
2023-04-07T02:42:41.230Z,24.29
2023-04-07T02:43:41.215Z,24.29
2023-04-07T02:44:41.274Z,24.27
2023-04-07T02:45:41.331Z,24.29
2023-04-07T02:46:41.315Z,24.30
2023-04-07T02:47:41.386Z,24.27
2023-04-07T02:48:41.352Z,24.27
2023-04-07T02:49:41.446Z,24.29
2023-04-07T02:50:41.442Z,24.29
2023-04-07T02:51:41.482Z,24.26
2023-04-07T02:52:41.479Z,24.26
2023-04-07T02:53:41.509Z,24.27
2023-04-07T02:54:41.539Z,24.27
2023-04-07T02:55:41.621Z,24.27
2023-04-07T02:56:41.616Z,24.27
2023-04-07T02:57:41.662Z,24.27
2023-04-07T02:58:41.710Z,24.29
2023-04-07T02:59:41.731Z,24.27
2023-04-07T03:00:41.715Z,24.27
2023-04-07T03:01:41.814Z,24.29
2023-04-07T03:02:41.835Z,24.26
2023-04-07T03:03:41.928Z,24.26
2023-04-07T03:04:41.890Z,24.26
2023-04-07T03:05:41.876Z,24.29
2023-04-07T03:06:41.901Z,24.26
2023-04-07T03:07:41.971Z,24.27
2023-04-07T03:08:41.973Z,24.29
2023-04-07T03:09:42.030Z,24.26
2023-04-07T03:10:42.036Z,24.29
2023-04-07T03:11:42.063Z,24.26
2023-04-07T03:12:42.061Z,24.26
2023-04-07T03:13:42.112Z,24.27
2023-04-07T03:14:42.140Z,24.26
2023-04-07T03:15:42.209Z,24.26
2023-04-07T03:16:42.258Z,24.27
2023-04-07T03:17:42.262Z,24.26
2023-04-07T03:18:42.278Z,24.26
2023-04-07T03:19:42.326Z,24.27
2023-04-07T03:20:42.372Z,24.25
2023-04-07T03:21:42.401Z,24.23
2023-04-07T03:22:42.393Z,24.26
2023-04-07T03:23:42.439Z,24.27
2023-04-07T03:24:42.524Z,24.25
2023-04-07T03:25:42.504Z,24.26
2023-04-07T03:26:42.542Z,24.27
2023-04-07T03:27:42.562Z,24.25
2023-04-07T03:28:42.594Z,24.25
2023-04-07T03:29:42.633Z,24.25
2023-04-07T03:30:42.813Z,24.25
2023-04-07T03:31:42.700Z,24.26
2023-04-07T03:32:42.759Z,24.26
2023-04-07T03:33:42.749Z,24.25
2023-04-07T03:34:42.810Z,24.25
2023-04-07T03:35:42.843Z,24.25
2023-04-07T03:36:42.874Z,24.26
2023-04-07T03:37:42.942Z,24.23
2023-04-07T03:38:42.947Z,24.23
2023-04-07T03:39:42.971Z,24.26
2023-04-07T03:40:43.010Z,24.23
2023-04-07T03:41:43.003Z,24.25
2023-04-07T03:42:43.043Z,24.25
2023-04-07T03:43:43.113Z,24.23
2023-04-07T03:44:43.152Z,24.25
2023-04-07T03:45:43.176Z,24.23
2023-04-07T03:46:43.257Z,24.25
2023-04-07T03:47:43.297Z,24.23
2023-04-07T03:48:43.255Z,24.23
2023-04-07T03:49:43.307Z,24.25
2023-04-07T03:50:43.360Z,24.23
2023-04-07T03:51:43.389Z,24.22
2023-04-07T03:52:43.432Z,24.23
2023-04-07T03:53:43.426Z,24.23
2023-04-07T03:54:43.458Z,24.25
2023-04-07T03:55:43.513Z,24.22
2023-04-07T03:56:43.527Z,24.25
2023-04-07T03:57:43.590Z,24.22
2023-04-07T03:58:43.614Z,24.23
2023-04-07T03:59:43.679Z,24.25
2023-04-07T04:00:43.693Z,24.25
2023-04-07T04:01:43.718Z,24.23
2023-04-07T04:02:43.835Z,24.23
2023-04-07T04:03:43.924Z,24.25
2023-04-07T04:04:43.812Z,24.23
2023-04-07T04:05:43.821Z,24.23
2023-04-07T04:06:43.858Z,24.22
2023-04-07T04:07:44.893Z,24.22
2023-04-07T04:08:43.926Z,24.22
2023-04-07T04:09:43.957Z,24.23
2023-04-07T04:10:44.010Z,24.23
2023-04-07T04:11:44.053Z,24.22
2023-04-07T04:12:44.068Z,24.20
2023-04-07T04:13:44.074Z,24.25
2023-04-07T04:14:44.144Z,24.22
2023-04-07T04:15:44.213Z,24.22
2023-04-07T04:16:44.187Z,24.20
2023-04-07T04:17:44.321Z,24.22
2023-04-07T04:18:44.254Z,24.22
2023-04-07T04:19:44.295Z,24.22
2023-04-07T04:20:44.324Z,24.20
2023-04-07T04:21:44.335Z,24.22
2023-04-07T04:22:44.386Z,24.22
2023-04-07T04:23:44.418Z,24.22
2023-04-07T04:24:44.505Z,24.22
2023-04-07T04:25:44.525Z,24.23
2023-04-07T04:26:44.576Z,24.20
2023-04-07T04:27:44.582Z,24.20
2023-04-07T04:28:44.636Z,24.22
2023-04-07T04:29:44.679Z,24.22
2023-04-07T04:30:44.706Z,24.20
2023-04-07T04:31:44.852Z,24.20
2023-04-07T04:32:44.828Z,24.22
2023-04-07T04:33:44.791Z,24.20
2023-04-07T04:34:44.820Z,24.20
2023-04-07T04:35:44.834Z,24.20
2023-04-07T04:36:44.903Z,24.19
2023-04-07T04:37:44.908Z,24.22
2023-04-07T04:38:44.937Z,24.22
2023-04-07T04:39:44.991Z,24.19
2023-04-07T04:40:45.039Z,24.20
2023-04-07T04:41:45.020Z,24.19
2023-04-07T04:42:45.077Z,24.20
2023-04-07T04:43:45.336Z,24.22
2023-04-07T04:44:45.192Z,24.22
2023-04-07T04:45:45.166Z,24.20
2023-04-07T04:46:45.221Z,24.19
2023-04-07T04:47:45.278Z,24.22
2023-04-07T04:48:45.263Z,24.20
2023-04-07T04:49:45.300Z,24.19
2023-04-07T04:50:45.323Z,24.19
2023-04-07T04:51:45.374Z,24.20
2023-04-07T04:52:45.425Z,24.19
2023-04-07T04:53:45.457Z,24.19
2023-04-07T04:54:45.453Z,24.17
2023-04-07T04:55:45.526Z,24.19
2023-04-07T04:56:45.530Z,24.19
2023-04-07T04:57:45.527Z,24.20
2023-04-07T04:58:45.566Z,24.17
2023-04-07T04:59:45.641Z,24.20
2023-04-07T05:00:45.720Z,24.19
2023-04-07T05:01:45.783Z,24.17
2023-04-07T05:02:45.967Z,24.20
2023-04-07T05:03:45.879Z,24.19
2023-04-07T05:04:45.950Z,24.20
2023-04-07T05:05:45.840Z,24.19
2023-04-07T05:06:45.856Z,24.20
2023-04-07T05:07:45.899Z,24.20
2023-04-07T05:08:45.954Z,24.19
2023-04-07T05:09:45.932Z,24.20
2023-04-07T05:10:46.740Z,24.17
2023-04-07T05:11:46.024Z,24.19
2023-04-07T05:12:46.080Z,24.19
2023-04-07T05:13:46.062Z,24.19
2023-04-07T05:14:46.120Z,24.19
2023-04-07T05:15:46.150Z,24.19
2023-04-07T05:16:46.166Z,24.22
2023-04-07T05:17:46.250Z,24.19
2023-04-07T05:18:46.249Z,24.20
2023-04-07T05:19:46.268Z,24.19
2023-04-07T05:20:46.300Z,24.19
2023-04-07T05:21:46.330Z,24.17
2023-04-07T05:22:46.381Z,24.19
2023-04-07T05:23:46.412Z,24.17
2023-04-07T05:24:46.416Z,24.19
2023-04-07T05:25:46.477Z,24.20
2023-04-07T05:26:46.473Z,24.19
2023-04-07T05:27:46.524Z,24.19
2023-04-07T05:28:46.547Z,24.19
2023-04-07T05:29:46.581Z,24.19
2023-04-07T05:30:46.639Z,24.19
2023-04-07T05:31:46.693Z,24.19
2023-04-07T05:32:46.695Z,24.17
2023-04-07T05:33:46.692Z,24.22
2023-04-07T05:34:46.754Z,24.19
2023-04-07T05:35:46.807Z,24.17
2023-04-07T05:36:46.806Z,24.19
2023-04-07T05:37:46.841Z,24.17
2023-04-07T05:38:46.875Z,24.19
2023-04-07T05:39:46.910Z,24.19
2023-04-07T05:40:46.933Z,24.19
2023-04-07T05:41:46.944Z,24.20
2023-04-07T05:42:46.992Z,24.20
2023-04-07T05:43:47.034Z,24.20
2023-04-07T05:44:47.083Z,24.20
2023-04-07T05:45:47.122Z,24.20
2023-04-07T05:46:47.123Z,24.19
2023-04-07T05:47:47.216Z,24.19
2023-04-07T05:48:47.189Z,24.19
2023-04-07T05:49:47.280Z,24.22
2023-04-07T05:50:47.245Z,24.19
2023-04-07T05:51:48.733Z,24.20
2023-04-07T05:52:47.335Z,24.19
2023-04-07T05:53:47.319Z,24.20
2023-04-07T05:54:47.353Z,24.19
2023-04-07T05:55:47.427Z,24.17
2023-04-07T05:56:47.443Z,24.22
2023-04-07T05:57:47.471Z,24.22
2023-04-07T05:58:47.506Z,24.20
2023-04-07T05:59:47.516Z,24.20
2023-04-07T06:00:47.557Z,24.20
2023-04-07T06:01:47.648Z,24.20
2023-04-07T06:02:47.736Z,24.22
2023-04-07T06:03:47.818Z,24.20
2023-04-07T06:04:47.703Z,24.20
2023-04-07T06:05:47.727Z,24.20
2023-04-07T06:06:47.724Z,24.20
2023-04-07T06:07:47.788Z,24.19
2023-04-07T06:08:47.785Z,24.19
2023-04-07T06:09:47.827Z,24.20
2023-04-07T06:10:47.869Z,24.20
2023-04-07T06:11:47.888Z,24.20
2023-04-07T06:12:47.918Z,24.19
2023-04-07T06:13:48.357Z,24.20
2023-04-07T06:14:47.998Z,24.19
2023-04-07T06:15:48.014Z,24.20
2023-04-07T06:16:48.045Z,24.22
2023-04-07T06:17:48.145Z,24.23
2023-04-07T06:18:48.081Z,24.19
2023-04-07T06:19:48.130Z,24.23
2023-04-07T06:20:48.168Z,24.22
2023-04-07T06:21:48.189Z,24.23
2023-04-07T06:22:48.213Z,24.22
2023-04-07T06:23:48.394Z,24.20
2023-04-07T06:24:48.296Z,24.23
2023-04-07T06:25:48.310Z,24.23
2023-04-07T06:26:48.358Z,24.20
2023-04-07T06:27:48.391Z,24.23
2023-04-07T06:28:48.392Z,24.23
2023-04-07T06:29:48.445Z,24.20
2023-04-07T06:30:48.532Z,24.22
2023-04-07T06:31:48.518Z,24.22
2023-04-07T06:32:48.568Z,24.23
2023-04-07T06:33:48.763Z,24.22
2023-04-07T06:34:48.567Z,24.23
2023-04-07T06:35:48.621Z,24.23
2023-04-07T06:36:48.651Z,24.23
2023-04-07T06:37:49.484Z,24.23
2023-04-07T06:38:48.737Z,24.23
2023-04-07T06:39:48.769Z,24.23
2023-04-07T06:40:48.801Z,24.25
2023-04-07T06:41:48.818Z,24.23
2023-04-07T06:42:48.861Z,24.23
2023-04-07T06:43:49.129Z,24.23
2023-04-07T06:44:48.937Z,24.23
2023-04-07T06:45:48.993Z,24.27
2023-04-07T06:46:49.312Z,24.25
2023-04-07T06:47:49.072Z,24.23
2023-04-07T06:48:49.043Z,24.23
2023-04-07T06:49:49.070Z,24.22
2023-04-07T06:50:50.977Z,24.25
2023-04-07T06:51:49.174Z,24.23
2023-04-07T06:52:49.187Z,24.25
2023-04-07T06:53:49.453Z,24.27
2023-04-07T06:54:49.285Z,24.26
2023-04-07T06:55:49.290Z,24.26
2023-04-07T06:56:49.318Z,24.25
2023-04-07T06:57:49.339Z,24.27
2023-04-07T06:58:49.401Z,24.27
2023-04-07T06:59:49.427Z,24.25
2023-04-07T07:00:49.438Z,24.26
2023-04-07T07:01:49.555Z,24.27
2023-04-07T07:02:49.586Z,24.26
2023-04-07T07:03:49.761Z,24.30
2023-04-07T07:04:49.570Z,24.27
2023-04-07T07:05:50.541Z,24.29
2023-04-07T07:06:49.599Z,24.30
2023-04-07T07:07:49.650Z,24.29
2023-04-07T07:08:49.657Z,24.29
2023-04-07T07:09:49.707Z,24.29
2023-04-07T07:10:49.777Z,24.30
2023-04-07T07:11:49.736Z,24.29
2023-04-07T07:12:49.777Z,24.32
2023-04-07T07:13:50.048Z,24.30
2023-04-07T07:14:49.850Z,24.30
2023-04-07T07:15:49.935Z,24.33
2023-04-07T07:16:49.866Z,24.32
2023-04-07T07:17:49.935Z,24.33
2023-04-07T07:18:49.923Z,24.33
2023-04-07T07:19:49.968Z,24.33
2023-04-07T07:20:49.983Z,24.34
2023-04-07T07:21:49.994Z,24.33
2023-04-07T07:22:50.036Z,24.34
2023-04-07T07:23:50.332Z,24.34
2023-04-07T07:24:50.118Z,24.34
2023-04-07T07:25:50.113Z,24.33
2023-04-07T07:26:50.150Z,24.36
2023-04-07T07:27:50.183Z,24.36
2023-04-07T07:28:50.174Z,24.34
2023-04-07T07:29:50.199Z,24.33
2023-04-07T07:30:50.285Z,24.39
2023-04-07T07:31:50.264Z,24.37
2023-04-07T07:32:50.285Z,24.37
2023-04-07T07:33:50.640Z,24.37
2023-04-07T07:34:50.343Z,24.37
2023-04-07T07:35:50.384Z,24.39
2023-04-07T07:36:50.354Z,24.39
2023-04-07T07:37:50.406Z,24.39
2023-04-07T07:38:50.406Z,24.39
2023-04-07T07:39:50.415Z,24.42
2023-04-07T07:40:50.441Z,24.40
2023-04-07T07:41:50.445Z,24.40
2023-04-07T07:42:50.473Z,24.42
2023-04-07T07:43:50.516Z,24.43
2023-04-07T07:44:50.497Z,24.40
2023-04-07T07:45:50.532Z,24.42
2023-04-07T07:46:50.710Z,24.39
2023-04-07T07:47:50.571Z,24.43
2023-04-07T07:48:50.597Z,24.40
2023-04-07T07:49:50.616Z,24.40
2023-04-07T07:50:50.605Z,24.44
2023-04-07T07:51:50.635Z,24.42
2023-04-07T07:52:50.648Z,24.42
2023-04-07T07:53:50.664Z,24.43
2023-04-07T07:54:50.709Z,24.42
2023-04-07T07:55:50.707Z,24.44
2023-04-07T07:56:50.725Z,24.42
2023-04-07T07:57:50.736Z,24.44
2023-04-07T07:58:50.768Z,24.44
2023-04-07T07:59:50.814Z,24.43
2023-04-07T08:00:50.790Z,24.44
2023-04-07T08:01:50.881Z,24.43
2023-04-07T08:02:50.915Z,24.42
2023-04-07T08:03:51.233Z,24.43
2023-04-07T08:04:50.918Z,24.44
2023-04-07T08:05:50.898Z,24.46
2023-04-07T08:06:50.904Z,24.49
2023-04-07T08:07:53.317Z,24.46
2023-04-07T08:08:50.934Z,24.47
2023-04-07T08:09:50.910Z,24.47
2023-04-07T08:10:50.912Z,24.47
2023-04-07T08:11:50.883Z,24.47
2023-04-07T08:12:50.868Z,24.49
2023-04-07T08:13:50.894Z,24.47
2023-04-07T08:14:50.923Z,24.47
2023-04-07T08:15:50.966Z,24.47
2023-04-07T08:16:50.883Z,24.46
2023-04-07T08:17:50.896Z,24.47
2023-04-07T08:18:50.857Z,24.47
2023-04-07T08:19:50.838Z,24.50
2023-04-07T08:20:50.837Z,24.50
2023-04-07T08:21:50.845Z,24.49
2023-04-07T08:22:50.811Z,24.49
2023-04-07T08:23:51.071Z,24.49
2023-04-07T08:24:50.816Z,24.50
2023-04-07T08:25:50.792Z,24.47
2023-04-07T08:26:50.757Z,24.50
2023-04-07T08:27:50.779Z,24.49
2023-04-07T08:28:50.786Z,24.49
2023-04-07T08:29:50.745Z,24.52
2023-04-07T08:30:50.760Z,24.50
2023-04-07T08:31:50.773Z,24.52
2023-04-07T08:32:50.799Z,24.53
2023-04-07T08:33:50.750Z,24.52
2023-04-07T08:34:50.729Z,24.52
2023-04-07T08:35:50.748Z,24.53
2023-04-07T08:36:50.706Z,24.53
2023-04-07T08:37:50.676Z,24.54
2023-04-07T08:38:50.718Z,24.50
2023-04-07T08:39:50.683Z,24.52
2023-04-07T08:40:50.709Z,24.52
2023-04-07T08:41:50.725Z,24.56
2023-04-07T08:42:50.722Z,24.54
2023-04-07T08:43:50.750Z,24.54
2023-04-07T08:44:50.658Z,24.56
2023-04-07T08:45:51.765Z,24.56
2023-04-07T08:46:50.653Z,24.57
2023-04-07T08:47:50.646Z,24.59
2023-04-07T08:48:50.651Z,24.56
2023-04-07T08:49:50.611Z,24.60
2023-04-07T08:50:50.617Z,24.56
2023-04-07T08:51:50.595Z,24.60
2023-04-07T08:52:51.519Z,24.60
2023-04-07T08:53:50.571Z,24.60
2023-04-07T08:54:50.580Z,24.59
2023-04-07T08:55:50.560Z,24.62
2023-04-07T08:56:50.617Z,24.60
2023-04-07T08:57:50.578Z,24.60
2023-04-07T08:58:50.575Z,24.60
2023-04-07T08:59:50.576Z,24.62
2023-04-07T09:00:50.588Z,24.62
2023-04-07T09:01:50.614Z,24.63
2023-04-07T09:02:50.593Z,24.63
2023-04-07T09:03:50.772Z,24.63
2023-04-07T09:04:50.522Z,24.66
2023-04-07T09:05:50.522Z,24.63
2023-04-07T09:06:50.510Z,24.64
2023-04-07T09:07:50.504Z,24.64
2023-04-07T09:08:50.473Z,24.66
2023-04-07T09:09:50.458Z,24.66
2023-04-07T09:10:50.485Z,24.66
2023-04-07T09:11:50.467Z,24.67
2023-04-07T09:12:50.513Z,24.68
2023-04-07T09:13:50.436Z,24.67
2023-04-07T09:14:50.431Z,24.67
2023-04-07T09:15:50.454Z,24.68
2023-04-07T09:16:50.475Z,24.68
2023-04-07T09:17:50.423Z,24.70
2023-04-07T09:18:50.406Z,24.68
2023-04-07T09:19:50.422Z,24.70
2023-04-07T09:20:50.414Z,24.68
2023-04-07T09:21:50.454Z,24.68
2023-04-07T09:22:50.368Z,24.71
2023-04-07T09:23:50.581Z,24.71
2023-04-07T09:24:50.342Z,24.71
2023-04-07T09:25:50.359Z,24.74
2023-04-07T09:26:50.352Z,24.71
2023-04-07T09:27:50.349Z,24.73
2023-04-07T09:28:50.333Z,24.73
2023-04-07T09:29:50.364Z,24.71
2023-04-07T09:30:50.336Z,24.74
2023-04-07T09:31:51.049Z,24.75
2023-04-07T09:32:50.367Z,24.73
2023-04-07T09:33:50.359Z,24.75
2023-04-07T09:34:50.321Z,24.75
2023-04-07T09:35:50.329Z,24.78
2023-04-07T09:36:50.312Z,24.77
2023-04-07T09:37:50.275Z,24.77
2023-04-07T09:38:50.260Z,24.78
2023-04-07T09:39:50.259Z,24.77
2023-04-07T09:40:50.244Z,24.77
2023-04-07T09:41:50.273Z,24.77
2023-04-07T09:42:50.258Z,24.78
2023-04-07T09:43:50.462Z,24.80
2023-04-07T09:44:50.233Z,24.81
2023-04-07T09:45:50.363Z,24.80
2023-04-07T09:46:50.216Z,24.80
2023-04-07T09:47:50.220Z,24.78
2023-04-07T09:48:50.198Z,24.83
2023-04-07T09:49:50.195Z,24.84
2023-04-07T09:50:50.199Z,24.83
2023-04-07T09:51:50.196Z,24.81
2023-04-07T09:52:50.214Z,24.83
2023-04-07T09:53:51.229Z,24.81
2023-04-07T09:54:50.359Z,24.84
2023-04-07T09:55:50.447Z,24.83
2023-04-07T09:56:51.065Z,24.84
2023-04-07T09:57:50.571Z,24.85
2023-04-07T09:58:50.637Z,24.85
2023-04-07T09:59:50.691Z,24.87
2023-04-07T10:00:50.791Z,24.87
2023-04-07T10:01:50.957Z,24.87
2023-04-07T10:02:50.932Z,24.88
2023-04-07T10:03:51.477Z,24.88
2023-04-07T10:04:51.018Z,24.88
2023-04-07T10:05:51.032Z,24.90
2023-04-07T10:06:51.118Z,24.91
2023-04-07T10:07:51.197Z,24.90
2023-04-07T10:08:51.243Z,24.91
2023-04-07T10:09:51.289Z,24.91
2023-04-07T10:10:51.364Z,24.93
2023-04-07T10:11:51.405Z,24.94
2023-04-07T10:12:51.467Z,24.91
2023-04-07T10:13:51.521Z,24.93
2023-04-07T10:14:51.597Z,24.94
2023-04-07T10:15:51.635Z,24.94
2023-04-07T10:16:51.719Z,24.95
2023-04-07T10:17:51.906Z,24.95
2023-04-07T10:18:51.814Z,24.97
2023-04-07T10:19:51.884Z,24.95
2023-04-07T10:20:51.942Z,24.93
2023-04-07T10:21:51.986Z,24.97
2023-04-07T10:22:52.056Z,24.97
2023-04-07T10:23:52.102Z,24.98
2023-04-07T10:24:52.146Z,24.98
2023-04-07T10:25:52.204Z,24.99
2023-04-07T10:26:52.241Z,25.01
2023-04-07T10:27:52.306Z,24.97
2023-04-07T10:28:52.363Z,24.98
2023-04-07T10:29:52.411Z,24.98
2023-04-07T10:30:52.448Z,24.99
2023-04-07T10:31:52.529Z,25.02
2023-04-07T10:32:52.628Z,25.04
2023-04-07T10:33:52.877Z,25.01
2023-04-07T10:34:52.668Z,25.02
2023-04-07T10:35:52.753Z,25.01
2023-04-07T10:36:52.766Z,25.02
2023-04-07T10:37:52.839Z,25.04
2023-04-07T10:38:52.841Z,25.05
2023-04-07T10:39:52.910Z,25.05
2023-04-07T10:40:52.919Z,25.02
2023-04-07T10:41:52.999Z,25.02
2023-04-07T10:42:53.049Z,25.05
2023-04-07T10:43:53.105Z,25.04
2023-04-07T10:44:53.146Z,25.07
2023-04-07T10:45:53.219Z,25.05
2023-04-07T10:46:53.244Z,25.07
2023-04-07T10:47:53.369Z,25.08
2023-04-07T10:48:53.327Z,25.08
2023-04-07T10:49:53.365Z,25.08
2023-04-07T10:50:53.411Z,25.07
2023-04-07T10:51:53.436Z,25.07
2023-04-07T10:52:53.494Z,25.05
2023-04-07T10:53:53.571Z,25.08
2023-04-07T10:54:53.553Z,25.05
2023-04-07T10:55:53.620Z,25.08
2023-04-07T10:56:53.640Z,25.08
2023-04-07T10:57:53.738Z,25.10
2023-04-07T10:58:53.765Z,25.08
2023-04-07T10:59:53.823Z,25.10
2023-04-07T11:00:53.838Z,25.07
2023-04-07T11:01:53.926Z,25.08
2023-04-07T11:02:54.074Z,25.08
2023-04-07T11:03:54.110Z,25.10
2023-04-07T11:04:54.156Z,25.10
2023-04-07T11:05:54.064Z,25.12
2023-04-07T11:06:54.109Z,25.10
2023-04-07T11:07:54.121Z,25.11
2023-04-07T11:08:54.198Z,25.11
2023-04-07T11:09:54.242Z,25.12
2023-04-07T11:10:54.247Z,25.12
2023-04-07T11:11:54.259Z,25.12
2023-04-07T11:12:54.340Z,25.12
2023-04-07T11:13:54.354Z,25.12
2023-04-07T11:14:54.376Z,25.10
2023-04-07T11:15:54.469Z,25.14
2023-04-07T11:16:54.484Z,25.14
2023-04-07T11:17:54.562Z,25.14
2023-04-07T11:18:54.537Z,25.15
2023-04-07T11:19:54.594Z,25.14
2023-04-07T11:20:54.641Z,25.15
2023-04-07T11:21:54.654Z,25.15
2023-04-07T11:22:54.708Z,25.15
2023-04-07T11:23:54.725Z,25.17
2023-04-07T11:24:54.736Z,25.18
2023-04-07T11:25:54.807Z,25.15
2023-04-07T11:26:54.814Z,25.18
2023-04-07T11:27:54.856Z,25.18
2023-04-07T11:28:54.943Z,25.15
2023-04-07T11:29:54.905Z,25.18
2023-04-07T11:30:55.034Z,25.18
2023-04-07T11:31:55.018Z,25.19
2023-04-07T11:32:55.043Z,25.21
2023-04-07T11:33:55.045Z,25.17
2023-04-07T11:34:55.111Z,25.18
2023-04-07T11:35:55.200Z,25.19
2023-04-07T11:36:55.196Z,25.21
2023-04-07T11:37:55.229Z,25.18
2023-04-07T11:38:55.235Z,25.18
2023-04-07T11:39:55.277Z,25.19
2023-04-07T11:40:55.332Z,25.19
2023-04-07T11:41:55.344Z,25.18
2023-04-07T11:42:55.368Z,25.21
2023-04-07T11:43:55.408Z,25.19
2023-04-07T11:44:55.448Z,25.19
2023-04-07T11:45:55.462Z,25.18
2023-04-07T11:46:55.585Z,25.19
2023-04-07T11:47:55.613Z,25.19
2023-04-07T11:48:55.549Z,25.21
2023-04-07T11:49:55.593Z,25.18
2023-04-07T11:50:55.589Z,25.19
2023-04-07T11:51:55.659Z,25.21
2023-04-07T11:52:55.686Z,25.23
2023-04-07T11:53:55.723Z,25.22
2023-04-07T11:54:55.760Z,25.21
2023-04-07T11:55:55.806Z,25.21
2023-04-07T11:56:55.853Z,25.21
2023-04-07T11:57:55.858Z,25.21
2023-04-07T11:58:55.900Z,25.22
2023-04-07T11:59:55.911Z,25.19
2023-04-07T12:00:56.603Z,25.22
2023-04-07T12:01:57.868Z,25.22
2023-04-07T12:02:56.074Z,25.21
2023-04-07T12:03:56.161Z,25.21
2023-04-07T12:04:56.104Z,25.22
2023-04-07T12:05:56.096Z,25.22
2023-04-07T12:06:56.131Z,25.25
2023-04-07T12:07:56.126Z,25.22
2023-04-07T12:08:56.181Z,25.28
2023-04-07T12:09:56.204Z,25.22
2023-04-07T12:10:56.225Z,25.25
2023-04-07T12:11:56.267Z,25.25
2023-04-07T12:12:58.177Z,25.25
2023-04-07T12:13:56.276Z,25.28
2023-04-07T12:14:56.254Z,25.28
2023-04-07T12:15:56.239Z,25.29
2023-04-07T12:16:56.422Z,25.29
2023-04-07T12:17:56.265Z,25.31
2023-04-07T12:18:56.224Z,25.28
2023-04-07T12:19:56.250Z,25.31
2023-04-07T12:20:56.225Z,25.28
2023-04-07T12:21:56.205Z,25.28
2023-04-07T12:22:56.212Z,25.29
2023-04-07T12:23:56.226Z,25.31
2023-04-07T12:24:56.210Z,25.29
2023-04-07T12:25:56.220Z,25.29
2023-04-07T12:26:56.176Z,25.32
2023-04-07T12:27:56.225Z,25.31
2023-04-07T12:28:56.154Z,25.31
2023-04-07T12:29:56.245Z,25.31
2023-04-07T12:30:56.165Z,25.31
2023-04-07T12:31:56.266Z,25.33
2023-04-07T12:32:56.170Z,25.31
2023-04-07T12:33:56.142Z,25.32
2023-04-07T12:34:56.149Z,25.33
2023-04-07T12:35:56.143Z,25.35
2023-04-07T12:36:56.127Z,25.33
2023-04-07T12:37:56.094Z,25.33
2023-04-07T12:38:56.079Z,25.32
2023-04-07T12:39:56.074Z,25.33
2023-04-07T12:40:56.104Z,25.31
2023-04-07T12:41:56.095Z,25.31
2023-04-07T12:42:56.087Z,25.33
2023-04-07T12:43:56.102Z,25.31
2023-04-07T12:44:56.068Z,25.33
2023-04-07T12:45:56.069Z,25.33
2023-04-07T12:46:56.120Z,25.33
2023-04-07T12:47:56.061Z,25.31
2023-04-07T12:48:56.064Z,25.33
2023-04-07T12:49:55.997Z,25.32
2023-04-07T12:50:56.019Z,25.33
2023-04-07T12:51:56.020Z,25.35
2023-04-07T12:52:56.024Z,25.32